Time;durP1;ratioP1;P1;durP2;ratioP2;P2;SDS_P1;SDS_P2;PMS_P1;PMS_P2;Temp;Humidity;BMP_temperature;BMP_pressure;BME280_temperature;BME280_humidity;BME280_pressure;Samples;Min_cycle;Max_cycle;Signal;HPM_P1;HPM_P2
2022/10/09 00:01:32;;;;;;;316.57;147.93;;;;;;;;;;4972377;28;20393;-55
2022/10/09 00:03:58;;;;;;;330.73;156.20;;;;;;;;;;4974332;28;20401;-55
2022/10/09 00:06:32;;;;;;;350.67;165.97;;;;;;;;;;4973294;28;20637;-55
2022/10/09 00:09:00;;;;;;;353.03;166.03;;;;;;;;;;4977392;28;20315;-55
2022/10/09 00:11:27;;;;;;;326.47;152.93;;;;;;;;;;4974407;28;20681;-55
2022/10/09 00:13:53;;;;;;;292.60;130.80;;;;;;;;;;4981025;28;20317;-55
2022/10/09 00:16:20;;;;;;;281.37;128.27;;;;;;;;;;4991830;28;20246;-55
2022/10/09 00:18:46;;;;;;;320.03;149.17;;;;;;;;;;4983322;28;20201;-55
2022/10/09 00:21:20;;;;;;;316.57;145.33;;;;;;;;;;4989879;28;20180;-55
2022/10/09 00:23:46;;;;;;;317.83;146.17;;;;;;;;;;4991397;28;20330;-55
2022/10/09 00:26:12;;;;;;;304.50;139.50;;;;;;;;;;4991126;28;20217;-55
2022/10/09 00:28:38;;;;;;;306.13;139.37;;;;;;;;;;4996457;28;20213;-55
2022/10/09 00:31:05;;;;;;;304.27;139.87;;;;;;;;;;4993038;28;20572;-55
2022/10/09 00:33:31;;;;;;;306.20;139.53;;;;;;;;;;4988023;28;20185;-55
2022/10/09 00:35:57;;;;;;;316.07;145.43;;;;;;;;;;4988342;28;20232;-55
2022/10/09 00:38:23;;;;;;;308.60;141.93;;;;;;;;;;4988537;28;20232;-55
2022/10/09 00:40:49;;;;;;;287.73;129.83;;;;;;;;;;4996696;28;20605;-55
2022/10/09 00:43:19;;;;;;;287.53;129.17;;;;;;;;;;4984503;28;20305;-55
2022/10/09 00:45:49;;;;;;;319.93;146.47;;;;;;;;;;4982443;28;20213;-55
2022/10/09 00:48:16;;;;;;;310.23;142.97;;;;;;;;;;4988122;28;21068;-55
2022/10/09 00:50:48;;;;;;;309.83;141.50;;;;;;;;;;4982949;28;20387;-55
2022/10/09 00:53:16;;;;;;;300.87;136.57;;;;;;;;;;4993008;28;20586;-55
2022/10/09 00:55:42;;;;;;;332.23;155.80;;;;;;;;;;4986391;28;20690;-55
2022/10/09 00:58:09;;;;;;;300.47;138.00;;;;;;;;;;4984762;28;20262;-55
2022/10/09 01:00:35;;;;;;;339.17;158.57;;;;;;;;;;4990838;28;20277;-55
2022/10/09 01:03:01;;;;;;;305.60;139.00;;;;;;;;;;4986760;28;20213;-55
2022/10/09 01:05:39;;;;;;;319.50;147.53;;;;;;;;;;4987026;28;20228;-55
2022/10/09 01:08:10;;;;;;;320.40;149.00;;;;;;;;;;4984582;28;20247;-55
2022/10/09 01:10:51;;;;;;;292.17;132.97;;;;;;;;;;4992823;28;20352;-55
2022/10/09 01:13:43;;;;;;;355.13;170.37;;;;;;;;;;4986091;28;20665;-55
2022/10/09 01:16:10;;;;;;;317.80;146.50;;;;;;;;;;4971180;28;20228;-55
2022/10/09 01:18:39;;;;;;;339.43;160.00;;;;;;;;;;4975634;28;20202;-55
2022/10/09 01:21:10;;;;;;;319.73;147.90;;;;;;;;;;4981268;28;22645;-55
2022/10/09 01:23:48;;;;;;;312.73;144.23;;;;;;;;;;4989595;28;20308;-55
2022/10/09 01:26:18;;;;;;;307.00;141.33;;;;;;;;;;4990883;28;20247;-55
2022/10/09 01:28:47;;;;;;;291.93;133.57;;;;;;;;;;4991219;28;20213;-55
2022/10/09 01:31:13;;;;;;;296.27;135.00;;;;;;;;;;4997104;28;20213;-55
2022/10/09 01:33:39;;;;;;;318.57;146.73;;;;;;;;;;4996939;28;20230;-55
2022/10/09 01:36:06;;;;;;;315.70;145.17;;;;;;;;;;4992624;28;20282;-55
2022/10/09 01:38:33;;;;;;;295.13;136.13;;;;;;;;;;4996621;28;20212;-55
2022/10/09 01:41:01;;;;;;;328.50;153.13;;;;;;;;;;4981707;28;20229;-55
2022/10/09 01:43:27;;;;;;;291.20;131.73;;;;;;;;;;4989014;28;20217;-55
2022/10/09 01:46:13;;;;;;;321.17;149.30;;;;;;;;;;4987961;28;20704;-55
2022/10/09 01:48:40;;;;;;;338.67;157.10;;;;;;;;;;4987079;28;20185;-55
2022/10/09 01:51:06;;;;;;;310.03;142.67;;;;;;;;;;4980182;28;20276;-55
2022/10/09 01:53:33;;;;;;;351.63;167.87;;;;;;;;;;4986643;28;20300;-55
2022/10/09 01:56:04;;;;;;;311.67;146.50;;;;;;;;;;4997861;28;20216;-55
2022/10/09 01:58:33;;;;;;;310.67;144.27;;;;;;;;;;4989266;28;20209;-55
2022/10/09 02:00:59;;;;;;;315.70;146.13;;;;;;;;;;4991686;28;20223;-55
2022/10/09 02:03:26;;;;;;;291.00;132.80;;;;;;;;;;4991709;28;20193;-55
2022/10/09 02:05:53;;;;;;;314.93;146.33;;;;;;;;;;4993514;28;20312;-55
2022/10/09 02:08:20;;;;;;;296.97;136.90;;;;;;;;;;4987887;28;20618;-55
2022/10/09 02:10:47;;;;;;;309.10;142.73;;;;;;;;;;4994053;28;20235;-55
2022/10/09 02:13:13;;;;;;;308.63;141.87;;;;;;;;;;4992509;28;20226;-55
2022/10/09 02:15:46;;;;;;;327.33;152.57;;;;;;;;;;4990201;28;20842;-55
2022/10/09 02:18:14;;;;;;;307.80;142.17;;;;;;;;;;4991741;28;20185;-55
2022/10/09 02:20:44;;;;;;;324.73;153.10;;;;;;;;;;4987121;28;20220;-55
2022/10/09 02:23:11;;;;;;;317.90;150.17;;;;;;;;;;4968436;28;20386;-55
2022/10/09 02:25:37;;;;;;;320.30;152.43;;;;;;;;;;4969940;28;20566;-55
2022/10/09 02:28:04;;;;;;;299.27;136.07;;;;;;;;;;4971362;28;20553;-55
2022/10/09 02:30:35;;;;;;;328.70;151.73;;;;;;;;;;4984947;28;20186;-55
2022/10/09 02:33:01;;;;;;;332.90;156.73;;;;;;;;;;4980487;28;20678;-55
2022/10/09 02:35:27;;;;;;;317.53;146.23;;;;;;;;;;4990076;28;20284;-55
2022/10/09 02:37:53;;;;;;;332.97;154.07;;;;;;;;;;4983694;28;20289;-55
2022/10/09 02:40:19;;;;;;;310.33;142.53;;;;;;;;;;4986828;28;21049;-55
2022/10/09 02:42:45;;;;;;;316.83;146.60;;;;;;;;;;4979669;28;20247;-55
2022/10/09 02:45:11;;;;;;;315.73;147.10;;;;;;;;;;4991371;28;20200;-55
2022/10/09 02:47:36;;;;;;;311.87;143.23;;;;;;;;;;4991888;28;20213;-55
2022/10/09 02:50:02;;;;;;;274.37;123.83;;;;;;;;;;4989362;28;20879;-55
2022/10/09 02:52:28;;;;;;;301.20;140.63;;;;;;;;;;4988858;28;20217;-55
2022/10/09 02:54:54;;;;;;;317.10;150.73;;;;;;;;;;4990264;28;20205;-55
2022/10/09 02:57:20;;;;;;;292.13;132.43;;;;;;;;;;4991637;28;20205;-55
2022/10/09 02:59:46;;;;;;;302.23;136.23;;;;;;;;;;4987913;28;20219;-55
2022/10/09 03:02:12;;;;;;;310.40;143.47;;;;;;;;;;4990919;28;20451;-55
2022/10/09 03:04:38;;;;;;;327.30;151.57;;;;;;;;;;4988433;28;20209;-55
2022/10/09 03:07:04;;;;;;;326.37;155.40;;;;;;;;;;4988776;28;20307;-55
2022/10/09 03:09:30;;;;;;;284.80;128.17;;;;;;;;;;4994798;28;20268;-55
2022/10/09 03:11:56;;;;;;;294.87;133.40;;;;;;;;;;4993471;28;20725;-55
2022/10/09 03:14:22;;;;;;;320.17;149.93;;;;;;;;;;4990235;28;20304;-55
2022/10/09 03:16:48;;;;;;;294.20;133.73;;;;;;;;;;4989000;28;20217;-55
2022/10/09 03:19:14;;;;;;;293.87;133.53;;;;;;;;;;4989224;28;20311;-55
2022/10/09 03:21:40;;;;;;;309.27;142.33;;;;;;;;;;4994778;28;20693;-55
2022/10/09 03:24:06;;;;;;;316.73;145.93;;;;;;;;;;4989796;28;20265;-55
2022/10/09 03:26:32;;;;;;;297.33;134.63;;;;;;;;;;4975871;28;20228;-55
2022/10/09 03:28:58;;;;;;;312.63;144.63;;;;;;;;;;4961975;28;20675;-55
2022/10/09 03:31:25;;;;;;;315.63;146.00;;;;;;;;;;4958208;28;20783;-55
2022/10/09 03:33:51;;;;;;;289.77;133.93;;;;;;;;;;4973523;28;20209;-55
2022/10/09 03:36:17;;;;;;;341.30;164.47;;;;;;;;;;4962581;28;20245;-55
2022/10/09 03:38:43;;;;;;;326.67;154.80;;;;;;;;;;4971485;28;21749;-55
2022/10/09 03:41:09;;;;;;;299.90;137.83;;;;;;;;;;4968449;28;20210;-55
2022/10/09 03:43:35;;;;;;;307.53;141.13;;;;;;;;;;4965737;28;20224;-55
2022/10/09 03:46:06;;;;;;;309.17;142.83;;;;;;;;;;4976644;28;20220;-56
2022/10/09 03:48:32;;;;;;;296.80;135.60;;;;;;;;;;4984804;28;20300;-55
2022/10/09 03:50:58;;;;;;;326.53;153.23;;;;;;;;;;4981096;28;20435;-55
2022/10/09 03:53:23;;;;;;;305.40;139.93;;;;;;;;;;4989079;28;20221;-55
2022/10/09 03:55:49;;;;;;;342.53;162.13;;;;;;;;;;4992923;28;20307;-55
2022/10/09 03:58:15;;;;;;;321.77;146.57;;;;;;;;;;4991332;28;20319;-55
2022/10/09 04:00:44;;;;;;;298.23;136.70;;;;;;;;;;4986616;28;20783;-55
2022/10/09 04:03:10;;;;;;;310.53;142.03;;;;;;;;;;4991528;28;20228;-55
2022/10/09 04:05:36;;;;;;;334.07;155.90;;;;;;;;;;4983794;28;20683;-59
2022/10/09 04:08:03;;;;;;;305.20;139.73;;;;;;;;;;4986782;28;20225;-55
2022/10/09 04:10:29;;;;;;;296.63;135.40;;;;;;;;;;4988114;28;20578;-55
2022/10/09 04:12:55;;;;;;;298.33;135.57;;;;;;;;;;4994815;28;20902;-55
2022/10/09 04:15:21;;;;;;;317.37;145.50;;;;;;;;;;4987964;28;20280;-55
2022/10/09 04:17:47;;;;;;;313.83;145.23;;;;;;;;;;4987449;28;20325;-55
2022/10/09 04:20:13;;;;;;;295.60;134.47;;;;;;;;;;4993689;28;20367;-55
2022/10/09 04:22:39;;;;;;;297.20;134.53;;;;;;;;;;4988503;28;20736;-55
2022/10/09 04:25:05;;;;;;;322.67;152.20;;;;;;;;;;4991555;28;20308;-55
2022/10/09 04:27:31;;;;;;;301.30;139.53;;;;;;;;;;4991933;28;20196;-55
2022/10/09 04:29:57;;;;;;;331.17;155.77;;;;;;;;;;4984062;28;21791;-55
2022/10/09 04:32:22;;;;;;;314.73;145.70;;;;;;;;;;4988362;28;20232;-55
2022/10/09 04:34:48;;;;;;;318.40;145.30;;;;;;;;;;4978008;28;20255;-55
2022/10/09 04:37:14;;;;;;;342.03;160.00;;;;;;;;;;4974834;28;20233;-55
2022/10/09 04:39:40;;;;;;;319.90;148.33;;;;;;;;;;4987445;28;20207;-55
2022/10/09 04:42:06;;;;;;;292.27;133.33;;;;;;;;;;4991084;28;20189;-55
2022/10/09 04:44:32;;;;;;;296.23;134.63;;;;;;;;;;4990525;28;20221;-55
2022/10/09 04:46:58;;;;;;;296.63;134.97;;;;;;;;;;4990850;28;20204;-55
2022/10/09 04:49:24;;;;;;;319.57;149.60;;;;;;;;;;4986298;28;20704;-55
2022/10/09 04:51:50;;;;;;;339.23;161.97;;;;;;;;;;4980612;28;21878;-55
2022/10/09 04:54:16;;;;;;;307.73;143.50;;;;;;;;;;4990814;28;20400;-55
2022/10/09 04:56:42;;;;;;;305.20;141.07;;;;;;;;;;4989337;28;20706;-55
2022/10/09 04:59:08;;;;;;;310.53;145.30;;;;;;;;;;4987942;28;20701;-55
2022/10/09 05:01:34;;;;;;;305.83;143.70;;;;;;;;;;4985519;28;20216;-55
2022/10/09 05:03:59;;;;;;;320.00;150.20;;;;;;;;;;4985472;28;20677;-55
2022/10/09 05:06:25;;;;;;;305.07;141.10;;;;;;;;;;4990731;28;20205;-55
2022/10/09 05:08:52;;;;;;;302.37;137.73;;;;;;;;;;4987752;28;20205;-55
2022/10/09 05:11:20;;;;;;;310.47;142.47;;;;;;;;;;4985105;28;20236;-55
2022/10/09 05:13:47;;;;;;;280.40;126.93;;;;;;;;;;4992340;28;20579;-55
2022/10/09 05:16:17;;;;;;;321.97;149.70;;;;;;;;;;4985578;28;20225;-55
2022/10/09 05:18:47;;;;;;;294.03;134.23;;;;;;;;;;4990140;28;20200;-55
2022/10/09 05:21:14;;;;;;;311.27;143.60;;;;;;;;;;4985243;28;20192;-55
2022/10/09 05:23:39;;;;;;;310.73;143.77;;;;;;;;;;4994558;28;20213;-55
2022/10/09 05:26:07;;;;;;;301.60;137.57;;;;;;;;;;4995870;28;20267;-55
2022/10/09 05:28:33;;;;;;;313.30;147.30;;;;;;;;;;4997168;28;20212;-55
2022/10/09 05:30:59;;;;;;;313.30;146.47;;;;;;;;;;4987003;28;20398;-55
2022/10/09 05:33:25;;;;;;;302.57;137.67;;;;;;;;;;4987097;28;20438;-55
2022/10/09 05:35:52;;;;;;;326.53;151.93;;;;;;;;;;4984518;28;20236;-55
2022/10/09 05:38:18;;;;;;;295.63;136.30;;;;;;;;;;4991313;28;20216;-55
2022/10/09 05:40:55;;;;;;;298.80;137.40;;;;;;;;;;4984147;28;20267;-55
2022/10/09 05:43:28;;;;;;;298.47;135.87;;;;;;;;;;4992511;28;20213;-55
2022/10/09 05:45:54;;;;;;;426.67;215.40;;;;;;;;;;4982883;28;20207;-55
2022/10/09 05:48:20;;;;;;;301.60;136.93;;;;;;;;;;4990426;28;20182;-55
2022/10/09 05:50:46;;;;;;;337.37;161.93;;;;;;;;;;4985998;28;20221;-55
2022/10/09 05:53:12;;;;;;;266.73;119.87;;;;;;;;;;4985059;28;20441;-56
2022/10/09 05:55:38;;;;;;;309.27;143.37;;;;;;;;;;4983788;28;20217;-55
2022/10/09 05:58:04;;;;;;;302.40;141.40;;;;;;;;;;4995567;28;20821;-55
2022/10/09 06:00:30;;;;;;;299.30;140.50;;;;;;;;;;4991244;28;20178;-55
2022/10/09 06:02:56;;;;;;;279.63;127.87;;;;;;;;;;4989674;28;20752;-55
2022/10/09 06:05:22;;;;;;;308.27;140.27;;;;;;;;;;5013480;28;20221;-55
2022/10/09 06:07:48;;;;;;;311.27;144.93;;;;;;;;;;4987621;28;20693;-55
2022/10/09 06:10:14;;;;;;;317.73;148.03;;;;;;;;;;4984547;28;20217;-55
2022/10/09 06:12:40;;;;;;;308.77;143.33;;;;;;;;;;4978248;28;20642;-55
2022/10/09 06:15:06;;;;;;;355.77;166.57;;;;;;;;;;4971408;28;20193;-55
2022/10/09 06:17:33;;;;;;;317.90;147.53;;;;;;;;;;4977649;28;20317;-55
2022/10/09 06:19:59;;;;;;;312.50;142.97;;;;;;;;;;4983452;28;20659;-56
2022/10/09 06:22:25;;;;;;;303.00;137.27;;;;;;;;;;4959977;28;20280;-55
2022/10/09 06:24:51;;;;;;;321.60;149.90;;;;;;;;;;4963637;28;20714;-56
2022/10/09 06:27:16;;;;;;;322.47;151.67;;;;;;;;;;4952590;28;20472;-56
2022/10/09 06:29:42;;;;;;;366.33;175.70;;;;;;;;;;4961768;28;20269;-56
2022/10/09 06:32:08;;;;;;;319.63;150.80;;;;;;;;;;4961179;28;20210;-55
2022/10/09 06:34:34;;;;;;;310.73;142.77;;;;;;;;;;4953348;28;20317;-55
2022/10/09 06:37:00;;;;;;;301.53;138.73;;;;;;;;;;4956305;28;20541;-55
2022/10/09 06:39:26;;;;;;;314.27;146.83;;;;;;;;;;4958038;28;20193;-56
2022/10/09 06:41:52;;;;;;;320.83;149.73;;;;;;;;;;4956246;28;21164;-56
2022/10/09 06:44:18;;;;;;;349.60;165.40;;;;;;;;;;4953689;28;20218;-55
2022/10/09 06:46:45;;;;;;;340.97;161.33;;;;;;;;;;4950573;28;20259;-56
2022/10/09 06:49:12;;;;;;;310.50;143.80;;;;;;;;;;4967117;28;20221;-55
2022/10/09 06:51:38;;;;;;;320.13;149.60;;;;;;;;;;4977168;28;20189;-55
2022/10/09 06:54:08;;;;;;;293.80;136.63;;;;;;;;;;4982316;28;20520;-56
2022/10/09 06:56:34;;;;;;;331.53;157.97;;;;;;;;;;4975009;28;20702;-56
2022/10/09 06:59:03;;;;;;;313.27;147.83;;;;;;;;;;4980909;28;20220;-56
2022/10/09 07:01:33;;;;;;;301.53;140.03;;;;;;;;;;4974377;28;20330;-56
2022/10/09 07:04:13;;;;;;;338.33;160.67;;;;;;;;;;4969311;28;22257;-55
2022/10/09 07:06:40;;;;;;;383.43;170.67;;;;;;;;;;4974193;28;20557;-56
2022/10/09 07:09:08;;;;;;;336.03;151.77;;;;;;;;;;4986348;28;20243;-55
2022/10/09 07:11:38;;;;;;;313.97;143.93;;;;;;;;;;4970866;28;20252;-55
2022/10/09 07:14:05;;;;;;;367.47;166.13;;;;;;;;;;4978674;28;20217;-54
2022/10/09 07:16:33;;;;;;;307.43;141.57;;;;;;;;;;4983073;28;20251;-54
2022/10/09 07:19:02;;;;;;;348.83;156.43;;;;;;;;;;4968920;28;20217;-54
2022/10/09 07:21:28;;;;;;;294.30;134.70;;;;;;;;;;4979162;28;20210;-54
2022/10/09 07:23:53;;;;;;;354.47;166.67;;;;;;;;;;4985282;28;20258;-55
2022/10/09 07:26:21;;;;;;;334.80;158.70;;;;;;;;;;4982204;28;20220;-54
2022/10/09 07:28:48;;;;;;;329.57;145.63;;;;;;;;;;4984042;28;20213;-54
2022/10/09 07:31:14;;;;;;;327.93;151.63;;;;;;;;;;4984272;28;20598;-54
2022/10/09 07:33:43;;;;;;;346.10;155.47;;;;;;;;;;4980710;28;20673;-55
2022/10/09 07:36:10;;;;;;;308.17;145.07;;;;;;;;;;4976989;28;20208;-55
2022/10/09 07:38:36;;;;;;;293.90;133.27;;;;;;;;;;4981606;28;20311;-55
2022/10/09 07:41:03;;;;;;;327.87;143.83;;;;;;;;;;4982696;28;20222;-55
2022/10/09 07:43:30;;;;;;;307.43;139.37;;;;;;;;;;4980100;28;20328;-55
2022/10/09 07:45:59;;;;;;;315.67;147.43;;;;;;;;;;4981757;28;20213;-55
2022/10/09 07:48:26;;;;;;;290.30;131.93;;;;;;;;;;4982216;28;20226;-55
2022/10/09 07:50:52;;;;;;;348.67;151.53;;;;;;;;;;4986690;28;20249;-55
2022/10/09 07:53:17;;;;;;;354.43;159.13;;;;;;;;;;4967784;28;20316;-55
2022/10/09 07:55:45;;;;;;;405.43;177.57;;;;;;;;;;4964934;28;20316;-52
2022/10/09 07:58:11;;;;;;;301.27;133.77;;;;;;;;;;4973580;28;20232;-52
2022/10/09 08:00:37;;;;;;;407.70;182.03;;;;;;;;;;4969949;28;20178;-52
2022/10/09 08:03:03;;;;;;;343.50;165.93;;;;;;;;;;4973288;28;20208;-52
2022/10/09 08:05:29;;;;;;;357.27;174.37;;;;;;;;;;4974243;28;20228;-52
2022/10/09 08:07:55;;;;;;;377.20;182.47;;;;;;;;;;4966621;28;20217;-55
2022/10/09 08:10:21;;;;;;;332.73;156.30;;;;;;;;;;4972358;28;20216;-55
2022/10/09 08:12:47;;;;;;;321.83;156.20;;;;;;;;;;4970946;28;20198;-55
2022/10/09 08:15:13;;;;;;;399.83;198.77;;;;;;;;;;4969316;28;20545;-55
2022/10/09 08:17:39;;;;;;;328.30;154.73;;;;;;;;;;4981895;28;20228;-55
2022/10/09 08:20:05;;;;;;;297.03;141.07;;;;;;;;;;4969889;28;20689;-55
2022/10/09 08:22:31;;;;;;;328.30;155.10;;;;;;;;;;4979336;28;20713;-54
2022/10/09 08:24:57;;;;;;;322.57;152.03;;;;;;;;;;4977010;28;20267;-55
2022/10/09 08:27:23;;;;;;;298.60;139.33;;;;;;;;;;4981399;28;20686;-54
2022/10/09 08:29:49;;;;;;;300.70;144.83;;;;;;;;;;4985654;28;20206;-54
2022/10/09 08:32:15;;;;;;;311.37;141.27;;;;;;;;;;4983422;28;20701;-55
2022/10/09 08:34:41;;;;;;;385.47;183.70;;;;;;;;;;5007420;28;20217;-55
2022/10/09 08:37:07;;;;;;;329.90;155.93;;;;;;;;;;4964401;28;20271;-55
2022/10/09 08:39:33;;;;;;;308.97;142.60;;;;;;;;;;4981659;28;20216;-55
2022/10/09 08:42:03;;;;;;;331.43;156.10;;;;;;;;;;4986671;28;20216;-55
2022/10/09 08:44:40;;;;;;;316.43;146.97;;;;;;;;;;4973272;28;20221;-55
2022/10/09 08:47:06;;;;;;;325.93;155.30;;;;;;;;;;4970480;28;20467;-55
2022/10/09 08:49:51;;;;;;;354.50;167.03;;;;;;;;;;4970623;28;20238;-55
2022/10/09 08:52:36;;;;;;;329.53;153.17;;;;;;;;;;4979546;28;20213;-55
2022/10/09 08:55:20;;;;;;;337.17;163.63;;;;;;;;;;4976853;28;20225;-54
2022/10/09 08:57:50;;;;;;;378.77;185.30;;;;;;;;;;4981190;28;20219;-55
2022/10/09 09:00:16;;;;;;;302.63;139.50;;;;;;;;;;4972254;28;20534;-55
2022/10/09 09:02:45;;;;;;;334.53;159.30;;;;;;;;;;4984196;28;20730;-55
2022/10/09 09:05:30;;;;;;;336.30;159.13;;;;;;;;;;4973432;28;20394;-55
2022/10/09 09:07:59;;;;;;;359.70;175.10;;;;;;;;;;4979250;28;20229;-55
2022/10/09 09:10:30;;;;;;;335.97;162.80;;;;;;;;;;4977487;28;20597;-55
2022/10/09 09:13:01;;;;;;;314.77;149.90;;;;;;;;;;4983843;28;20194;-55
2022/10/09 09:15:46;;;;;;;341.53;163.83;;;;;;;;;;4978406;28;20206;-55
2022/10/09 09:18:31;;;;;;;525.87;276.47;;;;;;;;;;4970033;28;20223;-55
2022/10/09 09:21:26;;;;;;;353.77;175.13;;;;;;;;;;4966436;28;20302;-55
2022/10/09 09:23:52;;;;;;;334.17;162.20;;;;;;;;;;4975363;28;20916;-55
2022/10/09 09:26:20;;;;;;;369.57;182.47;;;;;;;;;;4971749;28;20232;-55
2022/10/09 09:28:47;;;;;;;359.50;174.00;;;;;;;;;;4972930;28;20217;-55
2022/10/09 09:31:18;;;;;;;388.80;195.73;;;;;;;;;;4963822;28;20996;-55
2022/10/09 09:33:51;;;;;;;350.70;173.00;;;;;;;;;;4973071;28;20774;-55
2022/10/09 09:36:26;;;;;;;337.10;164.53;;;;;;;;;;4979195;28;20214;-55
2022/10/09 09:38:52;;;;;;;318.53;154.73;;;;;;;;;;4989622;28;20219;-55
2022/10/09 09:41:18;;;;;;;342.90;167.07;;;;;;;;;;4991187;28;20288;-55
2022/10/09 09:43:45;;;;;;;337.33;163.13;;;;;;;;;;4978552;28;20423;-55
2022/10/09 09:46:19;;;;;;;351.50;172.70;;;;;;;;;;4986148;28;20260;-55
2022/10/09 09:48:47;;;;;;;360.63;180.13;;;;;;;;;;4984532;28;20239;-55
2022/10/09 09:51:16;;;;;;;310.80;146.47;;;;;;;;;;4986471;28;20173;-55
2022/10/09 09:53:45;;;;;;;337.60;163.97;;;;;;;;;;4976394;28;20788;-55
2022/10/09 09:56:11;;;;;;;356.23;178.30;;;;;;;;;;4976324;28;20717;-55
2022/10/09 09:58:44;;;;;;;314.20;151.97;;;;;;;;;;4981203;28;20705;-55
2022/10/09 10:01:19;;;;;;;411.10;211.80;;;;;;;;;;4980478;28;20526;-55
2022/10/09 10:03:48;;;;;;;393.77;198.67;;;;;;;;;;4979358;28;20564;-55
2022/10/09 10:06:30;;;;;;;358.17;181.07;;;;;;;;;;4981827;28;20384;-55
2022/10/09 10:08:57;;;;;;;314.50;150.13;;;;;;;;;;4980788;28;20213;-55
2022/10/09 10:11:23;;;;;;;355.10;179.23;;;;;;;;;;4981989;28;20221;-55
2022/10/09 10:13:49;;;;;;;369.20;186.63;;;;;;;;;;4977368;28;20225;-55
2022/10/09 10:16:26;;;;;;;356.70;180.53;;;;;;;;;;4980075;28;20545;-55
2022/10/09 10:18:53;;;;;;;341.30;163.90;;;;;;;;;;4977559;28;20180;-55
2022/10/09 10:21:20;;;;;;;357.60;180.10;;;;;;;;;;4986550;28;20181;-55
2022/10/09 10:23:46;;;;;;;339.77;165.03;;;;;;;;;;4988246;28;20224;-54
2022/10/09 10:26:24;;;;;;;339.90;166.23;;;;;;;;;;4979442;28;20220;-54
2022/10/09 10:29:03;;;;;;;348.60;174.03;;;;;;;;;;4978556;28;20217;-54
2022/10/09 10:31:47;;;;;;;342.90;168.07;;;;;;;;;;4981414;28;20311;-54
2022/10/09 10:34:16;;;;;;;302.40;141.07;;;;;;;;;;4986707;28;20212;-54
2022/10/09 10:36:42;;;;;;;326.73;160.27;;;;;;;;;;4988372;28;20217;-54
2022/10/09 10:39:12;;;;;;;334.47;167.87;;;;;;;;;;4979283;28;20440;-54
2022/10/09 10:41:44;;;;;;;328.03;161.40;;;;;;;;;;4996306;28;20241;-54
2022/10/09 10:44:36;;;;;;;313.00;151.23;;;;;;;;;;4984444;28;20779;-55
2022/10/09 10:47:05;;;;;;;314.63;150.63;;;;;;;;;;4982879;28;20248;-55
2022/10/09 10:49:31;;;;;;;331.13;160.93;;;;;;;;;;4984916;28;20802;-55
2022/10/09 10:52:04;;;;;;;354.37;177.13;;;;;;;;;;4977092;28;20232;-55
2022/10/09 10:54:33;;;;;;;314.50;154.87;;;;;;;;;;4990764;28;20220;-55
2022/10/09 10:57:15;;;;;;;326.77;162.47;;;;;;;;;;4992891;28;20217;-55
2022/10/09 10:59:47;;;;;;;333.17;163.53;;;;;;;;;;4983439;28;20221;-55
2022/10/09 11:02:16;;;;;;;319.63;156.07;;;;;;;;;;4986010;28;20232;-55
2022/10/09 11:04:49;;;;;;;328.47;164.40;;;;;;;;;;4985577;28;20236;-55
2022/10/09 11:07:18;;;;;;;336.90;170.03;;;;;;;;;;4983711;28;20779;-55
2022/10/09 11:09:43;;;;;;;323.47;160.97;;;;;;;;;;4987204;28;20228;-55
2022/10/09 11:12:09;;;;;;;339.43;172.50;;;;;;;;;;4993433;28;20262;-55
2022/10/09 11:14:38;;;;;;;317.40;159.83;;;;;;;;;;4987305;28;20582;-55
2022/10/09 11:17:08;;;;;;;329.30;169.83;;;;;;;;;;4996865;28;20304;-55
2022/10/09 11:19:43;;;;;;;316.70;156.03;;;;;;;;;;4980869;28;20735;-55
2022/10/09 11:22:21;;;;;;;311.40;156.13;;;;;;;;;;4988476;28;20209;-54
2022/10/09 11:24:47;;;;;;;381.73;197.57;;;;;;;;;;4976684;28;20256;-55
2022/10/09 11:27:17;;;;;;;339.87;174.23;;;;;;;;;;4982285;28;20194;-55
2022/10/09 11:29:44;;;;;;;349.47;177.47;;;;;;;;;;4980346;28;20651;-55
2022/10/09 11:32:13;;;;;;;330.87;167.60;;;;;;;;;;4977355;28;20739;-55
2022/10/09 11:34:46;;;;;;;340.53;173.27;;;;;;;;;;4971126;28;20244;-55
2022/10/09 11:37:16;;;;;;;355.47;180.87;;;;;;;;;;4971564;28;20225;-55
2022/10/09 11:39:42;;;;;;;363.53;187.97;;;;;;;;;;4972241;28;20198;-55
2022/10/09 11:42:09;;;;;;;317.63;164.80;;;;;;;;;;4975695;28;20555;-55
2022/10/09 11:44:53;;;;;;;355.03;187.43;;;;;;;;;;4974476;28;20244;-55
2022/10/09 11:47:31;;;;;;;311.80;161.17;;;;;;;;;;4978936;28;20212;-55
2022/10/09 11:50:03;;;;;;;338.67;176.63;;;;;;;;;;4989666;28;20235;-55
2022/10/09 11:52:38;;;;;;;334.07;173.00;;;;;;;;;;4974980;28;20237;-55
2022/10/09 11:55:15;;;;;;;336.53;179.60;;;;;;;;;;4976828;28;20683;-55
2022/10/09 11:57:41;;;;;;;328.70;171.83;;;;;;;;;;4980972;28;20220;-55
2022/10/09 12:00:08;;;;;;;328.97;170.53;;;;;;;;;;4980213;28;20654;-55
2022/10/09 12:02:34;;;;;;;359.80;193.80;;;;;;;;;;4982011;28;20213;-55
2022/10/09 12:05:00;;;;;;;357.40;191.03;;;;;;;;;;4972172;28;20224;-55
2022/10/09 12:07:31;;;;;;;363.57;190.63;;;;;;;;;;4974033;28;20547;-55
2022/10/09 12:10:02;;;;;;;372.77;196.67;;;;;;;;;;4961918;28;20607;-55
2022/10/09 12:12:28;;;;;;;327.43;166.53;;;;;;;;;;4984098;28;20213;-55
2022/10/09 12:14:54;;;;;;;345.47;175.40;;;;;;;;;;4981411;28;20229;-55
2022/10/09 12:17:23;;;;;;;351.60;182.43;;;;;;;;;;4972482;28;20236;-55
2022/10/09 12:19:51;;;;;;;349.33;185.40;;;;;;;;;;4981335;28;21369;-55
2022/10/09 12:22:17;;;;;;;331.10;168.10;;;;;;;;;;4975413;28;20227;-55
2022/10/09 12:24:50;;;;;;;334.40;171.07;;;;;;;;;;4977506;28;20640;-55
2022/10/09 12:27:18;;;;;;;351.07;181.23;;;;;;;;;;4982672;28;20188;-55
2022/10/09 12:29:45;;;;;;;380.17;205.43;;;;;;;;;;4975497;28;20248;-55
2022/10/09 12:32:22;;;;;;;327.30;170.90;;;;;;;;;;4997706;28;20304;-55
2022/10/09 12:34:49;;;;;;;326.90;170.60;;;;;;;;;;4990624;28;20781;-55
2022/10/09 12:37:17;;;;;;;332.83;178.43;;;;;;;;;;4988015;28;20311;-55
2022/10/09 12:39:43;;;;;;;325.10;172.93;;;;;;;;;;4992213;28;20201;-55
2022/10/09 12:42:21;;;;;;;325.80;178.13;;;;;;;;;;4992715;28;20182;-55
2022/10/09 12:44:47;;;;;;;343.30;187.27;;;;;;;;;;4997210;28;20219;-55
2022/10/09 12:47:20;;;;;;;327.87;177.90;;;;;;;;;;4993720;28;20270;-55
2022/10/09 12:49:59;;;;;;;330.37;180.40;;;;;;;;;;4989905;28;20209;-55
2022/10/09 12:52:25;;;;;;;344.57;189.00;;;;;;;;;;4988554;28;20213;-55
2022/10/09 12:54:51;;;;;;;340.33;189.10;;;;;;;;;;4996534;28;20201;-55
2022/10/09 12:57:17;;;;;;;339.70;190.77;;;;;;;;;;4996872;28;20197;-55
2022/10/09 12:59:44;;;;;;;357.93;202.87;;;;;;;;;;4991850;28;20584;-55
2022/10/09 13:02:15;;;;;;;327.90;178.80;;;;;;;;;;4992194;28;20224;-55
2022/10/09 13:04:40;;;;;;;328.93;180.47;;;;;;;;;;4988702;28;20283;-55
2022/10/09 13:07:14;;;;;;;330.37;181.07;;;;;;;;;;4992536;28;20215;-55
2022/10/09 13:09:40;;;;;;;341.13;190.33;;;;;;;;;;4990968;28;20169;-55
2022/10/09 13:12:06;;;;;;;335.03;184.80;;;;;;;;;;4991526;28;20185;-55
2022/10/09 13:14:32;;;;;;;326.83;178.33;;;;;;;;;;4990743;28;20865;-55
2022/10/09 13:16:58;;;;;;;355.17;195.60;;;;;;;;;;4985793;28;20212;-55
2022/10/09 13:19:28;;;;;;;350.80;195.80;;;;;;;;;;4973512;28;20312;-55
2022/10/09 13:22:01;;;;;;;374.97;203.73;;;;;;;;;;4976924;28;20196;-56
2022/10/09 13:24:28;;;;;;;370.60;209.77;;;;;;;;;;4972694;28;20208;-55
2022/10/09 13:26:54;;;;;;;364.52;220.25;;;;;;;;;;4977212;28;20213;-56
2022/10/09 13:29:21;;;;;;;354.05;218.07;;;;;;;;;;4983365;28;20225;-56
2022/10/09 13:31:47;;;;;;;345.88;209.52;;;;;;;;;;4987056;28;20221;-56
2022/10/09 13:34:15;;;;;;;360.33;218.77;;;;;;;;;;4980486;28;20616;-56
2022/10/09 13:36:41;;;;;;;368.20;228.50;;;;;;;;;;4979727;28;20477;-56
2022/10/09 13:39:09;;;;;;;388.63;236.35;;;;;;;;;;4974353;28;20307;-55
2022/10/09 13:41:36;;;;;;;339.98;202.57;;;;;;;;;;4982874;28;20232;-55
2022/10/09 13:44:02;;;;;;;364.98;219.05;;;;;;;;;;4986914;28;20271;-56
2022/10/09 13:46:28;;;;;;;354.10;209.00;;;;;;;;;;4984433;28;20225;-55
2022/10/09 13:48:54;;;;;;;358.90;209.33;;;;;;;;;;4983514;28;20527;-55
2022/10/09 13:51:20;;;;;;;343.40;200.10;;;;;;;;;;4985891;28;20594;-55
2022/10/09 13:53:45;;;;;;;362.53;212.73;;;;;;;;;;4999750;28;20257;-55
2022/10/09 13:56:11;;;;;;;366.97;214.47;;;;;;;;;;4980091;28;20236;-55
2022/10/09 13:58:37;;;;;;;352.43;205.60;;;;;;;;;;4982332;28;20225;-55